Time;durP1;ratioP1;P1;durP2;ratioP2;P2;SDS_P1;SDS_P2;PMS_P1;PMS_P2;Temp;Humidity;BMP_temperature;BMP_pressure;BME280_temperature;BME280_humidity;BME280_pressure;Samples;Min_cycle;Max_cycle;Signal;HPM_P1;HPM_P2
2021/08/09 00:04:50;;;;;;;13.88;5.72;;;13.00;99.90;;;;;;4898515;29;20035;-82
2021/08/09 00:10:38;;;;;;;14.50;5.90;;;12.90;99.90;;;;;;4898685;29;20508;-82
2021/08/09 00:16:30;;;;;;;11.85;5.60;;;12.80;97.40;;;;;;4899495;29;20040;-82
2021/08/09 00:22:19;;;;;;;16.08;5.88;;;12.70;97.90;;;;;;4898482;29;20031;-82
2021/08/09 00:28:08;;;;;;;14.90;6.70;;;12.60;97.40;;;;;;4898285;29;20628;-82
2021/08/09 00:33:57;;;;;;;16.92;6.93;;;12.80;97.50;;;;;;4898608;29;20088;-82
2021/08/09 00:39:46;;;;;;;15.70;7.30;;;12.50;96.30;;;;;;4898128;29;20083;-82
2021/08/09 00:45:34;;;;;;;16.80;6.97;;;12.70;99.10;;;;;;4898521;29;20055;-82
2021/08/09 00:51:23;;;;;;;20.33;7.78;;;12.70;96.30;;;;;;4898348;29;20115;-81
2021/08/09 01:01:04;;;;;;;18.00;7.80;;;12.70;98.80;;;;;;4898380;29;20445;-82
2021/08/09 01:06:54;;;;;;;17.98;8.10;;;12.60;97.90;;;;;;4901483;29;20055;-82
2021/08/09 01:13:05;;;;;;;19.42;8.40;;;12.70;97.80;;;;;;4901484;29;20032;-82
2021/08/09 01:19:00;;;;;;;25.52;9.65;;;12.90;96.10;;;;;;4901395;29;20028;-81
2021/08/09 01:24:58;;;;;;;14.15;6.13;;;12.60;96.20;;;;;;4901089;29;20032;-82
2021/08/09 01:30:48;;;;;;;19.08;8.20;;;12.60;95.70;;;;;;4901289;29;20089;-81
2021/08/09 01:36:44;;;;;;;16.45;7.00;;;13.00;95.40;;;;;;4900944;29;20496;-82
2021/08/09 01:42:34;;;;;;;15.23;6.63;;;12.50;94.90;;;;;;4901763;29;20493;-82
2021/08/09 01:48:23;;;;;;;16.08;7.00;;;12.50;94.90;;;;;;4900948;29;20055;-82
2021/08/09 01:54:12;;;;;;;16.00;6.82;;;12.60;94.90;;;;;;4900575;29;20032;-82
2021/08/09 02:04:01;;;;;;;13.77;5.93;;;12.60;94.00;;;;;;4900663;29;20153;-82
2021/08/09 02:09:49;;;;;;;21.88;7.97;;;12.90;91.20;;;;;;4900288;29;20501;-82
2021/08/09 02:15:59;;;;;;;20.60;7.38;;;12.60;90.60;;;;;;4899393;29;20040;-82
2021/08/09 02:22:00;;;;;;;15.82;6.57;;;12.00;90.60;;;;;;4900335;29;20056;-82
2021/08/09 02:28:15;;;;;;;19.65;8.30;;;12.00;90.40;;;;;;4899805;29;20063;-82
2021/08/09 02:34:05;;;;;;;15.18;7.00;;;12.00;90.40;;;;;;4900145;29;20035;-82
2021/08/09 02:39:56;;;;;;;14.32;6.80;;;12.00;90.50;;;;;;4899989;29;20681;-82
2021/08/09 02:45:48;;;;;;;16.77;7.22;;;12.00;90.40;;;;;;4899704;29;20043;-82
2021/08/09 02:51:38;;;;;;;15.70;6.97;;;11.90;90.30;;;;;;4899599;29;20102;-82
2021/08/09 02:57:28;;;;;;;17.77;7.03;;;11.80;90.10;;;;;;4899917;29;20163;-81
2021/08/09 03:07:19;;;;;;;19.17;6.72;;;11.70;90.10;;;;;;4899539;29;20054;-81
2021/08/09 03:13:12;;;;;;;16.95;6.38;;;11.70;90.50;;;;;;4899276;29;20084;-82
2021/08/09 03:19:00;;;;;;;15.18;6.35;;;11.90;92.60;;;;;;4899186;29;20060;-81
2021/08/09 03:24:50;;;;;;;18.67;6.35;;;11.60;91.60;;;;;;4899061;29;20032;-82
2021/08/09 03:30:38;;;;;;;15.75;6.68;;;11.80;92.80;;;;;;4899475;29;20063;-82
2021/08/09 03:36:30;;;;;;;15.95;6.18;;;11.60;90.70;;;;;;4899446;29;20028;-82
2021/08/09 03:42:23;;;;;;;16.40;5.82;;;11.50;90.10;;;;;;4898711;29;20588;-81
2021/08/09 03:48:11;;;;;;;14.98;6.10;;;11.40;91.40;;;;;;4898611;29;20051;-81
2021/08/09 03:54:00;;;;;;;19.42;7.07;;;11.50;90.40;;;;;;4898772;29;20508;-81
2021/08/09 03:59:48;;;;;;;14.85;6.88;;;11.20;90.30;;;;;;4898557;29;20052;-81
2021/08/09 04:09:39;;;;;;;14.00;6.13;;;11.20;90.20;;;;;;4898938;29;20137;-85
2021/08/09 04:15:28;;;;;;;13.70;5.70;;;11.20;90.20;;;;;;4898716;29;20048;-85
2021/08/09 04:21:16;;;;;;;14.90;6.57;;;11.30;90.50;;;;;;4898780;29;20130;-85
2021/08/09 04:27:05;;;;;;;14.30;6.32;;;11.30;90.40;;;;;;4898163;29;20052;-86
2021/08/09 04:32:53;;;;;;;20.77;7.90;;;11.40;90.40;;;;;;4898589;29;20530;-85
2021/08/09 04:38:42;;;;;;;18.98;7.30;;;11.70;90.90;;;;;;4899954;29;20052;-85
2021/08/09 04:44:31;;;;;;;16.67;7.00;;;12.00;90.70;;;;;;4901866;29;20512;-86
2021/08/09 04:50:20;;;;;;;14.02;6.20;;;12.10;90.50;;;;;;4901994;29;20035;-85
2021/08/09 04:56:08;;;;;;;14.98;5.95;;;12.20;90.30;;;;;;4901870;29;20035;-86
2021/08/09 05:01:57;;;;;;;15.82;5.68;;;12.20;90.20;;;;;;4902820;29;20092;-86
2021/08/09 05:11:41;;;;;;;16.48;6.50;;;12.20;90.10;;;;;;4902732;29;20131;-86
2021/08/09 05:17:30;;;;;;;16.33;6.78;;;12.30;90.30;;;;;;4901514;29;20496;-84
2021/08/09 05:23:18;;;;;;;16.95;8.00;;;12.50;90.50;;;;;;4901331;29;20031;-85
2021/08/09 05:29:13;;;;;;;17.60;6.78;;;12.70;90.60;;;;;;4901232;29;20462;-84
2021/08/09 05:35:03;;;;;;;14.00;5.65;;;12.90;90.60;;;;;;4901092;29;20031;-83
2021/08/09 05:40:52;;;;;;;11.57;5.07;;;13.10;90.60;;;;;;4901240;29;20063;-86
2021/08/09 05:46:40;;;;;;;11.43;4.85;;;13.30;90.50;;;;;;4900972;29;20051;-83
2021/08/09 05:52:29;;;;;;;13.70;5.55;;;13.60;90.40;;;;;;4901041;29;20065;-85
2021/08/09 05:58:18;;;;;;;12.35;5.28;;;14.90;90.50;;;;;;4901255;29;20529;-85
2021/08/09 06:04:06;;;;;;;13.95;5.68;;;13.90;90.20;;;;;;4900693;29;20389;-86
2021/08/09 06:13:52;;;;;;;11.32;4.50;;;14.00;90.40;;;;;;4900575;29;20116;-87
2021/08/09 06:19:41;;;;;;;9.98;4.78;;;14.60;90.80;;;;;;4900408;29;20036;-85
2021/08/09 06:25:30;;;;;;;13.18;4.72;;;14.60;90.80;;;;;;4900213;29;20047;-85
2021/08/09 06:31:22;;;;;;;12.23;4.85;;;14.50;90.60;;;;;;4900097;29;20051;-83
2021/08/09 06:37:15;;;;;;;10.00;4.35;;;14.70;90.80;;;;;;4900010;29;20036;-84
2021/08/09 06:43:04;;;;;;;9.32;3.78;;;14.90;90.80;;;;;;4899752;29;20527;-83
2021/08/09 06:48:52;;;;;;;8.77;3.33;;;15.00;90.90;;;;;;4899792;29;20079;-83
2021/08/09 06:54:40;;;;;;;8.73;3.50;;;15.20;90.80;;;;;;4899504;29;20028;-86
2021/08/09 07:00:29;;;;;;;10.23;3.17;;;15.50;91.00;;;;;;4899595;29;20048;-85
2021/08/09 07:06:22;;;;;;;9.10;3.20;;;15.80;90.90;;;;;;4899520;29;20047;-88
2021/08/09 07:16:11;;;;;;;6.93;2.90;;;16.70;90.90;;;;;;4899689;29;20051;-85
2021/08/09 07:22:02;;;;;;;8.48;3.10;;;16.10;90.90;;;;;;4899363;29;20397;-86
2021/08/09 07:27:51;;;;;;;6.43;3.00;;;16.30;91.00;;;;;;4899055;29;20046;-86
2021/08/09 07:33:40;;;;;;;6.55;2.70;;;16.60;91.00;;;;;;4899208;29;20036;-87
2021/08/09 07:39:36;;;;;;;6.68;2.70;;;16.80;91.20;;;;;;4899117;29;20046;-87
2021/08/09 07:45:28;;;;;;;6.95;3.10;;;18.10;91.30;;;;;;4898772;29;20496;-86
2021/08/09 07:51:16;;;;;;;6.63;2.58;;;17.60;91.20;;;;;;4898576;29;20035;-85
2021/08/09 07:57:07;;;;;;;4.97;2.28;;;17.60;91.10;;;;;;4898935;29;20047;-85
2021/08/09 08:02:56;;;;;;;6.10;2.40;;;17.60;91.20;;;;;;4898867;29;20047;-85
2021/08/09 08:08:45;;;;;;;6.22;2.40;;;19.60;91.70;;;;;;4898711;29;20129;-85
2021/08/09 08:18:40;;;;;;;4.30;2.17;;;18.40;91.50;;;;;;4902636;29;20052;-84
2021/08/09 08:24:28;;;;;;;4.00;1.88;;;18.70;91.30;;;;;;4903023;29;20048;-82
2021/08/09 08:30:21;;;;;;;3.33;1.80;;;19.00;91.30;;;;;;4919056;29;20088;-85
2021/08/09 08:36:10;;;;;;;3.33;1.88;;;19.30;91.50;;;;;;4903000;29;20031;-82
2021/08/09 08:41:59;;;;;;;5.07;1.77;;;20.00;91.50;;;;;;4902044;29;20115;-83
2021/08/09 08:47:49;;;;;;;2.03;1.70;;;19.90;92.00;;;;;;4901744;29;20047;-82
2021/08/09 08:53:37;;;;;;;4.65;2.00;;;20.40;92.90;;;;;;4901889;29;20445;-82
2021/08/09 08:59:31;;;;;;;3.20;1.13;;;21.00;92.80;;;;;;4901722;29;20031;-82
2021/08/09 09:05:30;;;;;;;3.33;1.60;;;20.80;93.20;;;;;;4901454;29;20036;-82
2021/08/09 09:11:25;;;;;;;2.30;1.50;;;21.30;92.90;;;;;;4901311;29;20131;-84
2021/08/09 09:21:41;;;;;;;4.45;1.75;;;21.30;91.00;;;;;;4901235;29;20120;-83
2021/08/09 09:27:34;;;;;;;4.15;1.60;;;21.40;90.80;;;;;;4900982;29;20105;-82
2021/08/09 09:33:30;;;;;;;3.22;1.60;;;21.60;90.40;;;;;;4901090;29;20036;-82
2021/08/09 09:39:43;;;;;;;1.48;1.25;;;21.70;90.60;;;;;;4900730;29;20080;-82
2021/08/09 09:45:34;;;;;;;1.55;1.40;;;22.00;90.60;;;;;;4900918;29;20035;-82
2021/08/09 09:51:23;;;;;;;1.67;1.45;;;22.20;90.40;;;;;;4900870;29;20430;-83
2021/08/09 09:57:11;;;;;;;1.35;1.25;;;22.40;90.20;;;;;;4900697;29;20457;-83
2021/08/09 10:03:00;;;;;;;3.47;1.50;;;23.00;90.30;;;;;;4900370;29;20122;-83
2021/08/09 10:08:57;;;;;;;1.98;1.30;;;23.00;89.70;;;;;;4900535;29;20060;-84
2021/08/09 10:14:47;;;;;;;1.67;1.40;;;23.40;90.30;;;;;;4900440;29;20035;-84
2021/08/09 10:24:43;;;;;;;2.95;1.38;;;23.90;90.10;;;;;;4900391;29;20081;-85
2021/08/09 10:30:36;;;;;;;1.90;1.23;;;23.90;89.70;;;;;;4900153;29;20076;-84
2021/08/09 10:36:25;;;;;;;2.63;1.45;;;24.60;89.00;;;;;;4899051;29;20168;-84
2021/08/09 10:42:27;;;;;;;3.20;1.40;;;25.40;89.20;;;;;;4900084;29;20040;-84
2021/08/09 10:48:45;;;;;;;2.22;1.27;;;26.90;89.20;;;;;;4899942;29;20047;-84
2021/08/09 10:54:35;;;;;;;2.53;1.20;;;26.70;85.70;;;;;;4900380;29;20063;-84
2021/08/09 11:00:43;;;;;;;1.17;1.08;;;27.20;85.30;;;;;;4899681;29;20531;-83
2021/08/09 11:06:54;;;;;;;3.58;1.60;;;27.50;83.20;;;;;;4899574;29;20031;-82
2021/08/09 11:12:59;;;;;;;2.17;1.20;;;28.70;83.70;;;;;;4899398;29;20084;-81
2021/08/09 11:18:57;;;;;;;2.28;1.00;;;28.40;77.10;;;;;;4899632;29;20083;-81
2021/08/09 11:24:52;;;;;;;3.33;1.65;;;28.90;77.10;;;;;;4899252;29;20548;-82
2021/08/09 11:30:47;;;;;;;1.27;1.00;;;29.60;79.30;;;;;;4898813;29;20159;-81
2021/08/09 11:36:38;;;;;;;1.77;1.15;;;29.40;73.90;;;;;;4898808;29;20028;-83
2021/08/09 11:42:52;;;;;;;1.15;1.05;;;29.50;80.90;;;;;;4898911;29;20119;-80
2021/08/09 11:49:01;;;;;;;1.30;1.20;;;31.80;76.40;;;;;;4898543;29;20074;-81
2021/08/09 11:54:53;;;;;;;1.98;1.40;;;31.70;72.60;;;;;;4898538;29;20435;-80
2021/08/09 12:00:47;;;;;;;1.50;1.10;;;35.10;78.10;;;;;;4898848;29;20040;-80
2021/08/09 12:06:48;;;;;;;2.75;1.20;;;35.80;73.40;;;;;;4899009;29;20043;-82
2021/08/09 12:12:47;;;;;;;1.20;1.10;;;37.00;68.50;;;;;;4898608;29;20145;-83
2021/08/09 12:19:15;;;;;;;1.00;1.00;;;38.40;66.60;;;;;;4898988;29;20036;-83
2021/08/09 12:32:37;;;;;;;1.77;1.20;;;39.40;65.60;;;;;;4804771;29;20096;-83
2021/08/09 12:39:14;;;;;;;1.52;1.17;;;38.50;64.60;;;;;;4880372;29;20128;-83
2021/08/09 12:45:32;;;;;;;;;;;;;;;;;;;;;
2021/08/09 12:51:24;;;;;;;1.95;1.30;;;35.80;66.10;;;;;;4879451;29;20410;-82
2021/08/09 12:57:15;;;;;;;2.30;1.50;;;34.80;73.00;;;;;;4879616;29;20116;-81
2021/08/09 13:03:03;;;;;;;1.33;0.95;;;38.70;73.50;;;;;;4882893;29;20039;-81
2021/08/09 13:08:54;;;;;;;2.78;1.20;;;38.40;65.70;;;;;;4882779;29;20051;-81
2021/08/09 13:14:43;;;;;;;1.02;1.00;;;38.80;69.50;;;;;;4882849;29;20085;-81
2021/08/09 13:20:35;;;;;;;1.65;1.30;;;37.50;63.10;;;;;;4891479;29;20047;-81
2021/08/09 13:26:34;;;;;;;2.58;1.50;;;38.40;70.70;;;;;;4922188;29;20045;-81
2021/08/09 13:32:23;;;;;;;1.83;1.40;;;41.50;68.70;;;;;;4905612;29;20051;-81
2021/08/09 13:38:11;;;;;;;2.33;1.65;;;44.00;67.30;;;;;;4901111;29;20035;-81
2021/08/09 13:44:01;;;;;;;3.72;1.30;;;46.00;72.10;;;;;;4901295;29;20036;-81
2021/08/09 13:49:50;;;;;;;1.60;1.50;;;42.50;63.60;;;;;;4900711;29;20047;-81
2021/08/09 13:55:39;;;;;;;1.85;1.70;;;43.90;74.60;;;;;;4900737;29;20047;-82
2021/08/09 14:01:34;;;;;;;4.07;2.20;;;48.80;72.20;;;;;;4900462;29;20044;-82
2021/08/09 14:08:01;;;;;;;2.95;2.60;;;51.30;56.20;;;;;;4900312;29;20108;-85
2021/08/09 14:14:12;;;;;;;1.95;1.70;;;53.80;52.70;;;;;;4900429;29;20036;-86
2021/08/09 14:20:04;;;;;;;2.60;1.30;;;49.50;50.00;;;;;;4899956;29;20051;-84
2021/08/09 14:25:55;;;;;;;2.97;1.38;;;43.00;53.80;;;;;;4900406;29;20043;-85
2021/08/09 14:31:43;;;;;;;2.60;1.58;;;40.20;60.70;;;;;;4900302;29;20084;-82
2021/08/09 14:37:38;;;;;;;2.33;1.70;;;43.00;62.40;;;;;;4899925;29;20047;-82
2021/08/09 14:43:26;;;;;;;2.00;1.85;;;46.20;57.40;;;;;;4899716;29;20024;-84
2021/08/09 14:49:16;;;;;;;1.75;1.65;;;49.40;55.00;;;;;;4899797;29;20116;-84
2021/08/09 14:55:29;;;;;;;1.90;1.80;;;50.80;52.10;;;;;;4899716;29;20040;-81
2021/08/09 15:01:30;;;;;;;6.90;5.10;;;51.40;50.30;;;;;;4899310;29;20492;-83
2021/08/09 15:07:45;;;;;;;2.10;2.00;;;53.00;45.20;;;;;;4899363;29;20056;-84
2021/08/09 15:13:41;;;;;;;2.33;1.40;;;52.40;46.60;;;;;;4899887;29;20047;-82
2021/08/09 15:19:30;;;;;;;2.63;1.02;;;49.90;44.30;;;;;;4902443;29;20088;-86
2021/08/09 15:25:32;;;;;;;2.58;1.70;;;45.70;51.90;;;;;;4899585;29;20063;-84
2021/08/09 15:31:21;;;;;;;2.20;1.75;;;47.50;49.60;;;;;;4898937;29;20035;-84
2021/08/09 15:37:39;;;;;;;2.13;1.67;;;49.10;47.50;;;;;;4898735;29;20381;-83
2021/08/09 15:43:31;;;;;;;2.63;1.60;;;46.90;45.70;;;;;;4899042;29;20489;-81
2021/08/09 15:49:25;;;;;;;2.40;1.40;;;43.70;45.20;;;;;;4898906;29;20035;-79
2021/08/09 15:55:14;;;;;;;1.70;1.55;;;43.60;50.80;;;;;;4898968;29;20176;-81
2021/08/09 16:01:06;;;;;;;5.97;2.50;;;47.10;51.30;;;;;;4898534;29;20035;-81
2021/08/09 16:06:55;;;;;;;2.57;1.47;;;48.60;44.30;;;;;;4898846;29;20095;-81
2021/08/09 16:12:43;;;;;;;5.20;1.60;;;47.40;42.10;;;;;;4898782;29;20427;-81
2021/08/09 16:18:35;;;;;;;2.15;1.40;;;43.50;49.30;;;;;;4898349;29;20093;-82
2021/08/09 16:24:24;;;;;;;4.28;2.60;;;46.00;47.30;;;;;;4898373;29;20068;-82
2021/08/09 16:30:13;;;;;;;3.33;1.65;;;46.00;41.70;;;;;;4898773;29;20048;-82
2021/08/09 16:36:05;;;;;;;4.05;2.17;;;44.30;38.90;;;;;;4902105;29;20040;-82
2021/08/09 16:41:54;;;;;;;1.35;1.20;;;41.70;43.10;;;;;;4902113;29;20035;-82
2021/08/09 16:47:47;;;;;;;3.20;1.30;;;42.50;43.40;;;;;;4908199;29;20039;-82
2021/08/09 16:53:35;;;;;;;3.45;1.30;;;43.00;41.70;;;;;;4902452;29;20080;-82
2021/08/09 16:59:23;;;;;;;2.67;1.60;;;43.00;42.90;;;;;;4902005;29;20060;-81
2021/08/09 17:05:16;;;;;;;1.33;1.20;;;42.50;40.80;;;;;;4902018;29;20044;-81
2021/08/09 17:11:08;;;;;;;3.25;1.33;;;40.40;40.60;;;;;;4901856;29;20055;-81
2021/08/09 17:17:00;;;;;;;6.22;3.42;;;39.00;43.70;;;;;;4901277;29;20116;-81
2021/08/09 17:26:12;;;;;;;1.58;1.08;;;38.40;40.60;;;;;;4902219;29;20051;-81
2021/08/09 17:32:05;;;;;;;6.20;1.48;;;35.80;40.70;;;;;;4902436;29;20040;-81
2021/08/09 17:37:54;;;;;;;5.00;2.10;;;33.50;45.20;;;;;;4902237;29;20070;-80
2021/08/09 17:43:42;;;;;;;3.30;1.60;;;32.10;45.90;;;;;;4904336;29;20048;-84
2021/08/09 17:49:32;;;;;;;2.53;1.70;;;31.30;46.50;;;;;;4903799;29;20541;-85
2021/08/09 17:55:21;;;;;;;8.40;3.35;;;30.50;46.60;;;;;;4903029;29;20035;-84
2021/08/09 18:01:11;;;;;;;5.03;1.95;;;29.90;47.30;;;;;;4908266;29;20064;-85
2021/08/09 18:07:00;;;;;;;7.90;2.50;;;29.50;47.60;;;;;;4904982;29;20084;-86
2021/08/09 18:12:50;;;;;;;3.97;1.70;;;28.90;47.70;;;;;;4924421;29;20084;-86
2021/08/09 18:18:40;;;;;;;3.60;2.05;;;28.30;48.40;;;;;;4904977;29;20052;-86
2021/08/09 18:28:06;;;;;;;5.15;2.30;;;27.50;49.40;;;;;;4910926;29;20031;-85
2021/08/09 18:33:55;;;;;;;6.97;2.25;;;27.00;49.40;;;;;;4905001;29;20142;-84
2021/08/09 18:39:44;;;;;;;4.80;1.83;;;26.60;50.20;;;;;;4905749;29;20133;-83
2021/08/09 18:45:37;;;;;;;5.28;2.00;;;26.10;50.10;;;;;;4903059;29;20067;-84
2021/08/09 18:51:25;;;;;;;3.67;1.67;;;25.70;51.10;;;;;;4906377;29;20031;-87
2021/08/09 18:57:19;;;;;;;4.20;2.03;;;25.30;51.60;;;;;;4904780;29;20055;-86
2021/08/09 19:03:08;;;;;;;4.75;2.00;;;24.80;52.00;;;;;;4907780;29;20059;-84
2021/08/09 19:08:57;;;;;;;7.20;2.30;;;24.40;52.70;;;;;;4908877;29;20057;-87
2021/08/09 19:14:45;;;;;;;7.80;2.80;;;24.00;53.90;;;;;;4906447;29;20052;-84
2021/08/09 19:20:34;;;;;;;5.53;2.53;;;23.70;53.90;;;;;;4909459;29;20027;-83
2021/08/09 19:30:14;;;;;;;10.13;3.05;;;23.10;54.70;;;;;;4906260;29;20047;-83
2021/08/09 19:36:03;;;;;;;7.25;2.80;;;22.40;54.80;;;;;;4905665;29;20093;-81
2021/08/09 19:41:50;;;;;;;6.90;3.13;;;22.60;58.10;;;;;;4906760;29;20430;-85
2021/08/09 19:47:40;;;;;;;6.60;2.55;;;23.20;62.90;;;;;;4906077;29;20106;-85
2021/08/09 19:53:29;;;;;;;7.03;2.80;;;21.90;56.80;;;;;;4906815;29;20067;-82
2021/08/09 19:59:19;;;;;;;8.07;2.85;;;21.80;57.20;;;;;;4908476;29;20051;-85
2021/08/09 20:05:09;;;;;;;9.27;3.05;;;21.40;57.60;;;;;;4907805;29;20063;-84
2021/08/09 20:11:00;;;;;;;6.53;2.83;;;21.20;58.10;;;;;;4913096;29;20051;-82
2021/08/09 20:16:50;;;;;;;8.20;3.13;;;21.10;58.40;;;;;;4914551;29;20179;-81
2021/08/09 20:22:39;;;;;;;7.28;2.63;;;21.10;59.90;;;;;;4914819;29;20458;-81
2021/08/09 20:32:24;;;;;;;4.93;2.45;;;20.60;60.40;;;;;;4912713;29;20035;-84
2021/08/09 20:38:13;;;;;;;4.97;2.20;;;20.60;63.10;;;;;;4909719;29;20051;-83
2021/08/09 20:44:02;;;;;;;6.35;2.70;;;20.30;64.60;;;;;;4906925;29;20052;-84
2021/08/09 20:49:51;;;;;;;6.00;2.80;;;20.60;64.40;;;;;;4904779;29;20049;-84
2021/08/09 20:55:39;;;;;;;9.07;3.00;;;20.00;67.50;;;;;;4904560;29;20059;-84
2021/08/09 21:01:28;;;;;;;6.50;2.55;;;20.00;74.50;;;;;;4905829;29;20039;-80
2021/08/09 21:07:17;;;;;;;5.28;2.53;;;19.60;61.60;;;;;;4904584;29;20073;-80
2021/08/09 21:13:05;;;;;;;6.53;4.25;;;19.50;63.10;;;;;;4904795;29;20443;-80
2021/08/09 21:18:54;;;;;;;8.55;3.00;;;19.30;64.00;;;;;;4904091;29;20047;-80
2021/08/09 21:24:43;;;;;;;6.45;2.80;;;19.10;66.80;;;;;;4901302;29;20028;-80
2021/08/09 21:34:27;;;;;;;5.97;2.50;;;19.10;72.60;;;;;;4901441;29;20048;-80
2021/08/09 21:40:17;;;;;;;6.05;2.88;;;18.60;63.20;;;;;;4901017;29;20031;-80
2021/08/09 21:46:06;;;;;;;6.38;2.80;;;18.60;64.00;;;;;;4901125;29;20039;-80
2021/08/09 21:51:54;;;;;;;5.65;2.58;;;18.50;64.60;;;;;;4901051;29;20047;-80
2021/08/09 21:57:47;;;;;;;6.25;2.63;;;18.40;65.80;;;;;;4900777;29;20524;-80
2021/08/09 22:03:38;;;;;;;6.78;3.20;;;18.10;66.60;;;;;;4900651;29;20027;-80
2021/08/09 22:09:27;;;;;;;6.22;2.90;;;18.30;65.40;;;;;;4900520;29;20588;-80
2021/08/09 22:15:15;;;;;;;6.90;3.13;;;17.70;64.20;;;;;;4900606;29;20088;-80
2021/08/09 22:21:04;;;;;;;6.45;3.05;;;17.50;64.50;;;;;;4900309;29;20080;-80
2021/08/09 22:26:53;;;;;;;5.18;2.53;;;17.50;64.60;;;;;;4900115;29;20031;-80
2021/08/09 22:36:36;;;;;;;8.63;2.70;;;17.30;64.90;;;;;;4900119;29;20039;-81
2021/08/09 22:42:25;;;;;;;7.32;3.00;;;17.20;65.30;;;;;;4899864;29;20039;-81
2021/08/09 22:48:14;;;;;;;7.25;2.88;;;17.00;65.30;;;;;;4899640;29;20092;-80
2021/08/09 22:54:02;;;;;;;6.10;2.85;;;16.90;65.60;;;;;;4899905;29;20120;-80
2021/08/09 22:59:51;;;;;;;6.10;3.00;;;16.80;65.90;;;;;;4899831;29;20485;-80
2021/08/09 23:05:39;;;;;;;7.40;3.08;;;16.60;66.00;;;;;;4899715;29;20166;-80
2021/08/09 23:11:29;;;;;;;6.45;2.90;;;16.50;66.30;;;;;;4899623;29;20079;-80
2021/08/09 23:17:18;;;;;;;7.05;2.95;;;16.40;66.70;;;;;;4899536;29;20035;-80
2021/08/09 23:23:07;;;;;;;12.35;3.42;;;16.40;67.40;;;;;;4902029;29;20126;-80
2021/08/09 23:28:56;;;;;;;7.50;2.83;;;16.40;73.40;;;;;;4898987;29;20095;-80
2021/08/09 23:38:39;;;;;;;6.38;3.10;;;16.20;71.50;;;;;;4899192;29;20497;-80
2021/08/09 23:44:27;;;;;;;6.85;3.05;;;16.10;70.50;;;;;;4898823;29;20032;-80
2021/08/09 23:50:18;;;;;;;11.77;3.35;;;16.00;73.90;;;;;;4898986;29;20096;-80
2021/08/09 23:56:06;;;;;;;6.43;3.00;;;15.90;71.30;;;;;;4898969;29;20551;-80
